Time;durP1;ratioP1;P1;durP2;ratioP2;P2;SDS_P1;SDS_P2;PMS_P1;PMS_P2;Temp;Humidity;BMP_temperature;BMP_pressure;BME280_temperature;BME280_humidity;BME280_pressure;Samples;Min_cycle;Max_cycle;Signal;HPM_P1;HPM_P2
2022/11/27 00:00:00;;;;;;;12.70;8.40;;;21.00;41.50;;;;;;4948080;28;20055;-65
2022/11/27 00:02:27;;;;;;;11.10;8.52;;;21.00;41.50;;;;;;4970070;28;20452;-65
2022/11/27 00:04:54;;;;;;;15.07;9.38;;;21.00;41.50;;;;;;4952187;28;20057;-66
2022/11/27 00:07:21;;;;;;;13.43;8.68;;;21.00;41.50;;;;;;4969669;28;20129;-65
2022/11/27 00:09:48;;;;;;;13.75;8.93;;;21.00;41.50;;;;;;4969344;28;20101;-65
2022/11/27 00:12:15;;;;;;;11.73;9.23;;;21.00;41.50;;;;;;4969238;28;20430;-65
2022/11/27 00:14:43;;;;;;;14.05;9.15;;;21.00;41.60;;;;;;4970045;28;20445;-65
2022/11/27 00:17:10;;;;;;;12.57;9.00;;;21.00;41.50;;;;;;4951211;28;20453;-65
2022/11/27 00:19:37;;;;;;;13.27;8.30;;;21.00;41.50;;;;;;4969277;28;20066;-65
2022/11/27 00:22:04;;;;;;;12.25;8.27;;;21.00;41.60;;;;;;4968681;28;20549;-65
2022/11/27 00:24:31;;;;;;;13.60;9.35;;;21.00;41.60;;;;;;4969047;28;20069;-65
2022/11/27 00:26:58;;;;;;;12.60;8.98;;;21.00;41.50;;;;;;4969410;28;20417;-66
2022/11/27 00:29:28;;;;;;;12.35;8.43;;;20.90;41.50;;;;;;4969454;28;20502;-65
2022/11/27 00:31:55;;;;;;;11.90;8.35;;;20.90;41.50;;;;;;4967513;28;20054;-65
2022/11/27 00:34:22;;;;;;;12.63;8.15;;;20.90;41.50;;;;;;4949685;28;20072;-65
2022/11/27 00:36:49;;;;;;;14.82;8.93;;;20.90;41.50;;;;;;4968883;28;20047;-65
2022/11/27 00:39:16;;;;;;;11.07;8.50;;;20.90;41.50;;;;;;4969327;28;20087;-65
2022/11/27 00:41:44;;;;;;;11.85;7.85;;;20.90;41.50;;;;;;4968551;28;20058;-65
2022/11/27 00:44:12;;;;;;;10.70;7.93;;;20.90;41.60;;;;;;4969410;28;20405;-65
2022/11/27 00:46:40;;;;;;;11.73;8.00;;;20.90;41.50;;;;;;4969212;28;20058;-65
2022/11/27 00:49:09;;;;;;;9.93;7.72;;;20.90;41.50;;;;;;4969021;28;20081;-65
2022/11/27 00:51:36;;;;;;;11.75;7.93;;;20.90;41.50;;;;;;4969483;28;20058;-65
2022/11/27 00:54:04;;;;;;;10.25;7.68;;;20.90;41.50;;;;;;4968697;28;20051;-66
2022/11/27 00:56:34;;;;;;;9.63;7.18;;;20.90;41.60;;;;;;4951893;28;20047;-65
2022/11/27 00:59:03;;;;;;;11.07;7.85;;;20.90;41.50;;;;;;4968702;28;20151;-66
2022/11/27 01:01:34;;;;;;;9.50;7.45;;;20.90;41.60;;;;;;4968942;28;20050;-65
2022/11/27 01:04:03;;;;;;;11.40;7.40;;;20.90;41.60;;;;;;4969653;28;20051;-66
2022/11/27 01:06:31;;;;;;;9.98;7.45;;;20.90;41.60;;;;;;4949959;28;20125;-65
2022/11/27 01:08:58;;;;;;;8.90;6.97;;;20.90;41.60;;;;;;4973447;28;20104;-65
2022/11/27 01:11:28;;;;;;;10.40;7.20;;;20.90;41.60;;;;;;4972772;28;20061;-65
2022/11/27 01:13:58;;;;;;;8.80;6.50;;;20.90;41.60;;;;;;4972590;28;20051;-65
2022/11/27 01:16:28;;;;;;;8.35;6.63;;;20.90;41.60;;;;;;4956132;28;20061;-65
2022/11/27 01:18:57;;;;;;;9.57;7.35;;;20.90;41.60;;;;;;4972741;28;20054;-65
2022/11/27 01:21:27;;;;;;;9.82;7.35;;;20.90;41.60;;;;;;4955781;28;20085;-65
2022/11/27 01:23:55;;;;;;;8.95;7.28;;;20.90;41.60;;;;;;4972294;28;20051;-65
2022/11/27 01:26:23;;;;;;;10.65;6.40;;;20.90;41.70;;;;;;4972895;28;20401;-65
2022/11/27 01:28:54;;;;;;;10.77;6.82;;;20.90;42.20;;;;;;4972409;28;20059;-65
2022/11/27 01:31:24;;;;;;;9.38;6.50;;;20.90;41.70;;;;;;4971806;28;20057;-65
2022/11/27 01:33:54;;;;;;;9.40;6.63;;;20.90;41.60;;;;;;4972776;28;20042;-65
2022/11/27 01:36:22;;;;;;;8.10;5.93;;;20.90;41.60;;;;;;4971833;28;20292;-65
2022/11/27 01:38:49;;;;;;;9.98;7.20;;;20.90;41.60;;;;;;4968037;28;20074;-65
2022/11/27 01:41:34;;;;;;;9.40;6.57;;;20.90;41.60;;;;;;4970305;28;20055;-65
2022/11/27 01:44:22;;;;;;;8.93;6.53;;;20.90;41.60;;;;;;4972636;28;20046;-65
2022/11/27 01:47:00;;;;;;;9.32;5.82;;;20.90;41.60;;;;;;4970986;28;20050;-65
2022/11/27 01:49:33;;;;;;;9.07;5.97;;;20.90;41.60;;;;;;4972209;28;20062;-65
2022/11/27 01:52:06;;;;;;;7.90;5.93;;;20.90;41.60;;;;;;4955094;28;20055;-65
2022/11/27 01:54:41;;;;;;;8.48;6.20;;;20.90;41.60;;;;;;4971600;28;20043;-65
2022/11/27 01:57:15;;;;;;;8.98;6.20;;;20.90;41.60;;;;;;4972020;28;20133;-66
2022/11/27 01:59:42;;;;;;;8.70;6.72;;;20.90;41.60;;;;;;4971388;28;20049;-65
2022/11/27 02:02:10;;;;;;;7.55;5.40;;;20.90;41.60;;;;;;4971726;28;20413;-66
2022/11/27 02:04:37;;;;;;;7.60;6.18;;;20.90;41.60;;;;;;4971865;28;20517;-65
2022/11/27 02:07:04;;;;;;;8.98;6.75;;;20.90;41.60;;;;;;4971688;28;20073;-65
2022/11/27 02:09:32;;;;;;;7.72;5.47;;;20.90;41.60;;;;;;4972359;28;20058;-65
2022/11/27 02:12:25;;;;;;;7.05;5.53;;;20.90;41.60;;;;;;4971327;28;20047;-65
2022/11/27 02:15:10;;;;;;;8.25;5.80;;;20.90;41.60;;;;;;4967522;28;20043;-65
2022/11/27 02:17:56;;;;;;;6.75;5.20;;;20.90;41.60;;;;;;4971073;28;20061;-65
2022/11/27 02:20:47;;;;;;;7.07;5.53;;;20.90;41.60;;;;;;4971808;28;20050;-65
2022/11/27 02:23:24;;;;;;;;;;;20.90;41.60;;;;;;4972175;28;20047;-65
2022/11/27 02:26:19;;;;;;;7.30;5.07;;;20.90;41.60;;;;;;4970772;28;19929;-65
2022/11/27 02:29:02;;;;;;;7.55;4.85;;;20.90;41.60;;;;;;4972048;28;20043;-65
2022/11/27 02:31:55;;;;;;;7.78;6.30;;;20.90;41.60;;;;;;4971096;28;20536;-65
2022/11/27 02:34:37;;;;;;;6.93;5.10;;;20.90;41.70;;;;;;4969904;28;20046;-65
2022/11/27 02:37:29;;;;;;;6.57;5.20;;;20.90;41.70;;;;;;4970664;28;20054;-65
2022/11/27 02:40:10;;;;;;;7.68;5.70;;;20.90;41.70;;;;;;4972181;28;20397;-65
2022/11/27 02:42:43;;;;;;;7.10;5.45;;;20.90;41.70;;;;;;4970548;28;20563;-65
2022/11/27 02:45:15;;;;;;;6.78;5.05;;;20.90;41.70;;;;;;4971563;28;20070;-65
2022/11/27 02:47:44;;;;;;;6.10;4.95;;;20.90;41.70;;;;;;4965960;28;20054;-65
2022/11/27 02:50:18;;;;;;;6.80;4.90;;;20.90;41.70;;;;;;4971213;28;20429;-65
2022/11/27 02:52:48;;;;;;;7.35;5.22;;;20.80;41.70;;;;;;4971305;28;20096;-65
2022/11/27 02:55:19;;;;;;;6.47;4.93;;;20.80;41.70;;;;;;4969503;28;20453;-65
2022/11/27 02:57:49;;;;;;;4.85;4.18;;;20.80;41.70;;;;;;4971622;28;20420;-65
2022/11/27 03:00:17;;;;;;;6.18;5.10;;;20.80;41.70;;;;;;4970488;28;20058;-65
2022/11/27 03:02:51;;;;;;;6.10;4.50;;;20.80;41.70;;;;;;4971271;28;20424;-65
2022/11/27 03:05:21;;;;;;;6.05;4.43;;;20.80;41.70;;;;;;4954125;28;20405;-65
2022/11/27 03:07:58;;;;;;;6.32;4.50;;;20.90;41.70;;;;;;4970492;28;20657;-65
2022/11/27 03:10:44;;;;;;;5.82;4.40;;;20.80;41.70;;;;;;4970657;28;20535;-65
2022/11/27 03:13:12;;;;;;;5.75;4.57;;;20.80;41.70;;;;;;4970348;28;20069;-65
2022/11/27 03:16:03;;;;;;;6.30;4.68;;;20.80;41.70;;;;;;4970344;28;20054;-65
2022/11/27 03:18:41;;;;;;;5.50;4.15;;;20.80;41.70;;;;;;4970228;28;20060;-65
2022/11/27 03:21:38;;;;;;;5.95;4.05;;;20.80;41.70;;;;;;4966229;28;20167;-65
2022/11/27 03:24:06;;;;;;;6.32;4.38;;;20.80;41.70;;;;;;4969856;28;20058;-65
2022/11/27 03:26:34;;;;;;;6.10;4.47;;;20.80;41.70;;;;;;4970244;28;20058;-65
2022/11/27 03:29:04;;;;;;;5.47;4.07;;;20.80;41.70;;;;;;4969510;28;20097;-65
2022/11/27 03:31:31;;;;;;;4.17;3.77;;;20.80;41.70;;;;;;4969949;28;20051;-65
2022/11/27 03:33:58;;;;;;;6.03;4.07;;;20.80;41.70;;;;;;4970846;28;20172;-65
2022/11/27 03:36:25;;;;;;;5.30;4.32;;;20.80;41.70;;;;;;4969778;28;20143;-66
2022/11/27 03:38:54;;;;;;;5.07;3.85;;;20.80;41.80;;;;;;4970448;28;20378;-65
2022/11/27 03:41:48;;;;;;;4.75;4.13;;;20.80;41.80;;;;;;4970105;28;20046;-65
2022/11/27 03:44:40;;;;;;;5.93;4.38;;;20.80;41.80;;;;;;4970167;28;20069;-65
2022/11/27 03:47:35;;;;;;;3.72;3.13;;;20.80;41.80;;;;;;4970037;28;20259;-65
2022/11/27 03:50:30;;;;;;;5.82;4.45;;;20.80;41.80;;;;;;4969739;28;20073;-65
2022/11/27 03:53:26;;;;;;;4.78;3.85;;;20.80;41.80;;;;;;4970088;28;20520;-65
2022/11/27 03:56:07;;;;;;;4.43;3.70;;;20.80;41.80;;;;;;4964386;28;20050;-65
2022/11/27 03:58:45;;;;;;;5.57;4.32;;;20.80;41.80;;;;;;4969578;28;20062;-65
2022/11/27 04:01:15;;;;;;;5.35;3.65;;;20.80;41.70;;;;;;4969973;28;20051;-65
2022/11/27 04:03:42;;;;;;;4.80;3.55;;;20.80;41.80;;;;;;4952912;28;20047;-66
2022/11/27 04:06:10;;;;;;;4.53;3.83;;;20.80;41.70;;;;;;4969242;28;20268;-65
2022/11/27 04:08:38;;;;;;;6.32;4.22;;;20.80;41.70;;;;;;4968378;28;20058;-65
2022/11/27 04:11:06;;;;;;;3.67;3.35;;;20.80;41.70;;;;;;4969788;28;20053;-65
2022/11/27 04:13:33;;;;;;;4.57;3.92;;;20.80;41.70;;;;;;4969369;28;20043;-65
2022/11/27 04:16:00;;;;;;;3.85;3.45;;;20.80;41.70;;;;;;4969383;28;20058;-65
2022/11/27 04:18:28;;;;;;;4.90;3.33;;;20.80;41.80;;;;;;4969343;28;20059;-65
2022/11/27 04:20:55;;;;;;;3.95;3.10;;;20.80;41.70;;;;;;4952082;28;20428;-65
2022/11/27 04:23:22;;;;;;;5.45;3.90;;;20.80;41.80;;;;;;4970044;28;20043;-65
2022/11/27 04:25:50;;;;;;;3.63;3.25;;;20.80;41.80;;;;;;4968403;28;20055;-65
2022/11/27 04:28:17;;;;;;;4.90;3.08;;;20.80;41.80;;;;;;4968052;28;20379;-65
2022/11/27 04:30:49;;;;;;;5.50;3.65;;;20.80;41.80;;;;;;4966274;28;20053;-65
2022/11/27 04:33:16;;;;;;;4.40;3.58;;;20.80;41.80;;;;;;4969258;28;20051;-65
2022/11/27 04:35:43;;;;;;;4.45;3.45;;;20.80;41.80;;;;;;4968713;28;20081;-65
2022/11/27 04:38:10;;;;;;;3.85;2.92;;;20.80;41.80;;;;;;4968949;28;20051;-65
2022/11/27 04:40:37;;;;;;;4.80;3.50;;;20.80;41.80;;;;;;4969110;28;20047;-65
2022/11/27 04:43:04;;;;;;;3.80;3.38;;;20.80;41.80;;;;;;4968067;28;20332;-65
2022/11/27 04:45:31;;;;;;;3.60;3.10;;;20.80;41.80;;;;;;4952542;28;20412;-65
2022/11/27 04:47:58;;;;;;;5.43;3.20;;;20.80;41.80;;;;;;4967534;28;20049;-65
2022/11/27 04:50:25;;;;;;;3.95;3.20;;;20.80;41.80;;;;;;4968675;28;20474;-65
2022/11/27 04:52:52;;;;;;;4.15;3.05;;;20.80;41.80;;;;;;4968619;28;20076;-65
2022/11/27 04:55:19;;;;;;;3.67;3.13;;;20.80;41.80;;;;;;4968775;28;20042;-65
2022/11/27 04:57:47;;;;;;;3.60;3.03;;;20.80;41.90;;;;;;4969274;28;20058;-65
2022/11/27 05:00:14;;;;;;;4.32;3.10;;;20.80;41.80;;;;;;4969388;28;20049;-65
2022/11/27 05:02:41;;;;;;;4.15;2.75;;;20.70;41.80;;;;;;4964077;28;20059;-66
2022/11/27 05:05:08;;;;;;;3.58;2.67;;;20.70;41.80;;;;;;4969028;28;20083;-65
2022/11/27 05:07:36;;;;;;;3.10;2.70;;;20.70;41.80;;;;;;4968851;28;20408;-65
2022/11/27 05:10:04;;;;;;;4.47;3.17;;;20.70;41.80;;;;;;5051448;23;20048;-64
2022/11/27 05:12:32;;;;;;;2.70;2.50;;;20.70;41.80;;;;;;5010314;28;20046;-64
2022/11/27 05:14:59;;;;;;;3.22;2.90;;;20.70;41.80;;;;;;5010901;28;20042;-64
2022/11/27 05:17:30;;;;;;;3.17;2.88;;;20.70;41.80;;;;;;5008819;28;20081;-64
2022/11/27 05:19:57;;;;;;;3.05;2.38;;;20.70;41.80;;;;;;5007667;28;20061;-64
2022/11/27 05:22:24;;;;;;;2.72;2.47;;;20.70;41.90;;;;;;5008300;28;20057;-64
2022/11/27 05:24:51;;;;;;;3.13;2.88;;;20.70;41.90;;;;;;5007519;28;20133;-64
2022/11/27 05:27:18;;;;;;;3.17;2.78;;;20.70;41.90;;;;;;5007850;28;20173;-64
2022/11/27 05:29:45;;;;;;;3.72;3.25;;;20.70;41.90;;;;;;5008029;28;20700;-64
2022/11/27 05:32:12;;;;;;;3.05;2.50;;;20.70;41.90;;;;;;5008311;28;20042;-64
2022/11/27 05:34:39;;;;;;;3.22;2.63;;;20.70;41.90;;;;;;5007849;28;20049;-65
2022/11/27 05:37:07;;;;;;;4.47;2.50;;;20.70;41.90;;;;;;5002994;28;20061;-65
2022/11/27 05:39:34;;;;;;;3.83;2.83;;;20.60;41.70;;;;;;5007452;28;20056;-64
2022/11/27 05:42:01;;;;;;;3.55;2.80;;;20.70;41.50;;;;;;5007837;28;20046;-64
2022/11/27 05:44:28;;;;;;;3.80;3.17;;;20.70;41.50;;;;;;5007697;28;20046;-64
2022/11/27 05:46:56;;;;;;;2.58;2.38;;;20.70;41.50;;;;;;5008092;28;20419;-64
2022/11/27 05:49:23;;;;;;;3.65;2.72;;;20.70;41.50;;;;;;5007801;28;20395;-65
2022/11/27 05:51:50;;;;;;;3.28;2.40;;;20.70;41.50;;;;;;5009512;28;20576;-64
2022/11/27 05:54:18;;;;;;;3.25;2.70;;;20.70;41.50;;;;;;5011250;28;20049;-64
2022/11/27 05:56:45;;;;;;;2.97;2.67;;;20.70;41.50;;;;;;5011127;28;20057;-64
2022/11/27 05:59:13;;;;;;;2.70;2.50;;;20.70;41.50;;;;;;5010950;28;20041;-65
2022/11/27 06:01:41;;;;;;;2.80;2.50;;;20.70;41.40;;;;;;5010949;28;20270;-65
2022/11/27 06:04:08;;;;;;;2.60;2.30;;;20.70;41.40;;;;;;5011254;28;20117;-65
2022/11/27 06:06:35;;;;;;;2.72;2.53;;;20.70;41.40;;;;;;5010882;28;20056;-65
2022/11/27 06:09:02;;;;;;;3.55;2.97;;;20.70;41.30;;;;;;5010829;28;20049;-65
2022/11/27 06:11:37;;;;;;;2.72;2.35;;;20.80;41.20;;;;;;5006311;28;20463;-65
2022/11/27 06:14:07;;;;;;;3.45;2.78;;;20.80;41.20;;;;;;5010357;28;20566;-65
2022/11/27 06:16:34;;;;;;;2.95;2.67;;;20.80;41.10;;;;;;5010930;28;20062;-65
2022/11/27 06:19:02;;;;;;;3.92;3.10;;;20.80;41.00;;;;;;4993377;28;20084;-65
2022/11/27 06:21:29;;;;;;;3.65;2.83;;;20.80;40.90;;;;;;4993449;28;20579;-65
2022/11/27 06:23:56;;;;;;;4.90;3.33;;;20.90;40.90;;;;;;5010530;28;20403;-64
2022/11/27 06:26:26;;;;;;;3.22;2.88;;;20.90;40.80;;;;;;5010564;28;20447;-65
2022/11/27 06:28:54;;;;;;;4.27;3.20;;;20.90;40.70;;;;;;5010438;28;20053;-65
2022/11/27 06:31:24;;;;;;;4.10;2.95;;;21.00;40.70;;;;;;5010140;28;20407;-64
2022/11/27 06:33:53;;;;;;;4.18;3.10;;;21.00;40.70;;;;;;5010447;28;20046;-65
2022/11/27 06:36:21;;;;;;;4.60;2.90;;;21.00;40.60;;;;;;5010426;28;20416;-65
2022/11/27 06:38:48;;;;;;;5.22;2.90;;;21.00;40.50;;;;;;5009944;28;20492;-65
2022/11/27 06:41:18;;;;;;;4.75;3.20;;;21.10;40.50;;;;;;5010686;28;20407;-65
2022/11/27 06:43:46;;;;;;;3.63;3.25;;;21.10;40.40;;;;;;5007518;28;20048;-65
2022/11/27 06:46:15;;;;;;;4.80;2.95;;;21.10;40.30;;;;;;5008319;28;20542;-65
2022/11/27 06:48:45;;;;;;;3.17;2.90;;;21.10;40.30;;;;;;5010320;28;20056;-65
2022/11/27 06:51:14;;;;;;;4.78;3.42;;;21.10;40.20;;;;;;5010128;28;20050;-64
2022/11/27 06:53:42;;;;;;;3.80;2.97;;;21.10;40.10;;;;;;5010384;28;20057;-65
2022/11/27 06:56:11;;;;;;;4.40;3.67;;;21.20;40.10;;;;;;5009317;28;20288;-65
2022/11/27 06:58:39;;;;;;;4.63;3.25;;;21.20;40.00;;;;;;5009870;28;20049;-65
2022/11/27 07:01:09;;;;;;;5.20;3.42;;;21.20;40.00;;;;;;4992348;28;20052;-64
2022/11/27 07:03:36;;;;;;;3.55;3.25;;;21.30;39.90;;;;;;5009716;28;20050;-64
2022/11/27 07:06:06;;;;;;;4.68;3.47;;;21.30;39.90;;;;;;5009570;28;20057;-64
2022/11/27 07:08:34;;;;;;;3.90;2.95;;;21.30;39.80;;;;;;5010055;28;20555;-65
2022/11/27 07:11:05;;;;;;;5.28;3.65;;;21.30;39.70;;;;;;5009748;28;20048;-64
2022/11/27 07:13:33;;;;;;;3.50;3.00;;;21.30;39.70;;;;;;5009509;28;20407;-65
2022/11/27 07:16:02;;;;;;;3.63;3.17;;;21.40;39.70;;;;;;5009842;28;20050;-65
2022/11/27 07:18:33;;;;;;;4.40;3.58;;;21.40;39.70;;;;;;5009581;28;20057;-65
2022/11/27 07:21:00;;;;;;;3.30;2.80;;;21.40;39.60;;;;;;5005458;28;20440;-65
2022/11/27 07:23:27;;;;;;;3.97;3.58;;;21.40;39.50;;;;;;5009195;28;20496;-65
2022/11/27 07:25:54;;;;;;;4.38;3.30;;;21.40;39.50;;;;;;5009317;28;20427;-65
2022/11/27 07:28:21;;;;;;;3.40;3.10;;;21.50;39.50;;;;;;5009648;28;20425;-65
2022/11/27 07:30:55;;;;;;;4.53;3.22;;;21.40;39.40;;;;;;5009215;28;20526;-65
2022/11/27 07:33:23;;;;;;;4.72;3.90;;;21.50;39.40;;;;;;5009626;28;20064;-66
2022/11/27 07:36:04;;;;;;;3.88;3.28;;;21.50;39.40;;;;;;5009295;28;20053;-65
2022/11/27 07:38:32;;;;;;;5.05;4.32;;;21.50;39.30;;;;;;5009129;28;20074;-65
2022/11/27 07:41:00;;;;;;;4.88;3.58;;;21.50;39.30;;;;;;5009179;28;20054;-64
2022/11/27 07:43:28;;;;;;;4.53;3.83;;;21.50;39.20;;;;;;4991855;28;20050;-65
2022/11/27 07:45:55;;;;;;;5.47;4.30;;;21.60;39.20;;;;;;5009459;28;20054;-65
2022/11/27 07:48:23;;;;;;;8.07;4.80;;;21.60;39.20;;;;;;5008691;28;20538;-65
2022/11/27 07:50:50;;;;;;;9.18;6.18;;;21.60;39.10;;;;;;4991294;28;20057;-65
2022/11/27 07:53:17;;;;;;;6.65;4.97;;;21.60;39.10;;;;;;5008460;28;20519;-65
2022/11/27 07:55:44;;;;;;;6.80;4.60;;;21.70;39.10;;;;;;5008667;28;20046;-65
2022/11/27 07:58:11;;;;;;;6.43;4.80;;;21.60;39.00;;;;;;5009312;28;20060;-64
2022/11/27 08:00:38;;;;;;;7.78;4.70;;;21.70;39.00;;;;;;5004165;28;20042;-64
2022/11/27 08:03:06;;;;;;;5.97;4.45;;;21.70;39.00;;;;;;5009143;28;20050;-65
2022/11/27 08:05:34;;;;;;;5.97;4.95;;;21.70;38.90;;;;;;5009086;28;20072;-65
2022/11/27 08:08:03;;;;;;;6.13;4.43;;;21.70;38.90;;;;;;5008289;28;20504;-65
2022/11/27 08:10:33;;;;;;;6.60;5.00;;;21.80;39.40;;;;;;5008884;28;20053;-65
2022/11/27 08:13:00;;;;;;;5.85;4.97;;;21.80;38.80;;;;;;5007996;28;20050;-65
2022/11/27 08:15:27;;;;;;;6.10;4.55;;;21.80;38.70;;;;;;5008201;28;20049;-65
2022/11/27 08:17:55;;;;;;;8.02;4.82;;;21.90;38.70;;;;;;5008725;28;20052;-65
2022/11/27 08:20:22;;;;;;;6.70;5.07;;;21.90;38.70;;;;;;5008380;28;20052;-64
2022/11/27 08:22:49;;;;;;;7.72;4.93;;;21.90;38.60;;;;;;5008469;28;20077;-65
2022/11/27 08:25:16;;;;;;;8.15;5.30;;;22.00;38.60;;;;;;5008016;28;20045;-65
2022/11/27 08:27:43;;;;;;;6.80;5.15;;;22.00;38.60;;;;;;5008012;28;20046;-65
2022/11/27 08:30:11;;;;;;;6.07;4.43;;;22.00;38.50;;;;;;5006164;28;20053;-65
2022/11/27 08:32:39;;;;;;;6.03;4.70;;;22.00;38.40;;;;;;5007550;28;20050;-65
2022/11/27 08:35:07;;;;;;;5.85;5.03;;;22.10;38.40;;;;;;5008607;28;20188;-65
2022/11/27 08:37:34;;;;;;;6.78;5.05;;;22.10;38.40;;;;;;5008036;28;20062;-65
2022/11/27 08:40:03;;;;;;;6.00;4.20;;;22.10;38.30;;;;;;5003662;28;20518;-65
2022/11/27 08:42:30;;;;;;;8.60;5.10;;;22.20;38.30;;;;;;5008433;28;20521;-65
2022/11/27 08:44:57;;;;;;;5.38;4.55;;;22.20;38.30;;;;;;5008085;28;20488;-65
2022/11/27 08:47:24;;;;;;;5.90;4.53;;;22.20;38.20;;;;;;5008325;28;20150;-65
2022/11/27 08:49:51;;;;;;;4.93;3.97;;;22.20;38.10;;;;;;5007665;28;20061;-65
2022/11/27 08:52:19;;;;;;;6.65;4.47;;;22.30;38.10;;;;;;5008408;28;20054;-65
2022/11/27 08:54:46;;;;;;;6.22;4.38;;;22.30;38.10;;;;;;5008173;28;20050;-65
2022/11/27 08:57:17;;;;;;;6.57;4.18;;;22.40;38.10;;;;;;5007905;28;20077;-65
2022/11/27 08:59:44;;;;;;;6.65;4.80;;;22.40;38.00;;;;;;5008332;28;20057;-65
2022/11/27 09:02:12;;;;;;;5.88;4.50;;;22.40;38.00;;;;;;5007695;28;20050;-65
2022/11/27 09:04:39;;;;;;;6.15;4.30;;;22.40;37.90;;;;;;5008140;28;20065;-65
2022/11/27 09:07:06;;;;;;;5.47;4.20;;;22.40;37.90;;;;;;5007745;28;20050;-65
2022/11/27 09:09:35;;;;;;;4.22;3.85;;;22.50;37.90;;;;;;5008035;28;20050;-65
2022/11/27 09:12:02;;;;;;;5.00;3.75;;;22.50;37.80;;;;;;5008428;28;20045;-65
2022/11/27 09:14:29;;;;;;;5.55;4.57;;;22.50;37.70;;;;;;5003227;28;20392;-65
2022/11/27 09:16:56;;;;;;;6.88;4.65;;;22.60;37.70;;;;;;4990923;28;20439;-65
2022/11/27 09:19:24;;;;;;;5.80;4.78;;;22.60;37.60;;;;;;5007442;28;20060;-64
2022/11/27 09:21:51;;;;;;;6.05;4.68;;;22.60;37.60;;;;;;5008254;28;20041;-65
2022/11/27 09:24:18;;;;;;;4.88;4.38;;;22.70;37.60;;;;;;5008200;28;20057;-65
2022/11/27 09:26:46;;;;;;;5.28;4.00;;;22.70;37.50;;;;;;5009651;28;20061;-65
2022/11/27 09:29:13;;;;;;;4.22;3.83;;;22.70;37.40;;;;;;5011838;28;20069;-65
2022/11/27 09:31:40;;;;;;;5.43;3.67;;;22.80;37.40;;;;;;5011118;28;20366;-67
2022/11/27 09:34:07;;;;;;;4.25;3.70;;;22.80;37.30;;;;;;4994325;28;20054;-65
2022/11/27 09:36:34;;;;;;;4.53;3.63;;;22.80;37.30;;;;;;4978195;28;20120;-65
2022/11/27 09:39:02;;;;;;;4.43;3.65;;;22.80;37.20;;;;;;5010678;28;20141;-65
2022/11/27 09:41:49;;;;;;;4.38;3.58;;;22.90;37.20;;;;;;5011946;28;20141;-65
2022/11/27 09:44:48;;;;;;;4.90;3.80;;;22.90;37.20;;;;;;5010837;28;20042;-65
2022/11/27 09:47:37;;;;;;;5.60;4.00;;;22.90;37.20;;;;;;4997052;28;20053;-65
2022/11/27 09:50:15;;;;;;;3.78;3.33;;;23.00;37.10;;;;;;5010684;28;20418;-65
2022/11/27 09:53:17;;;;;;;4.30;3.65;;;23.00;37.10;;;;;;5009721;28;20046;-65
2022/11/27 09:55:48;;;;;;;5.30;3.72;;;23.00;37.00;;;;;;4996481;28;20101;-66
2022/11/27 09:58:21;;;;;;;4.95;3.50;;;23.00;37.00;;;;;;5011085;28;20057;-65
2022/11/27 10:00:48;;;;;;;5.43;4.10;;;23.00;37.00;;;;;;5011124;28;20050;-65
2022/11/27 10:03:20;;;;;;;4.47;3.13;;;23.00;36.90;;;;;;5010626;28;20084;-65
2022/11/27 10:06:13;;;;;;;3.35;3.05;;;23.10;37.00;;;;;;5011464;28;20042;-65
2022/11/27 10:09:02;;;;;;;5.07;3.28;;;23.10;36.90;;;;;;5010555;28;20069;-65
2022/11/27 10:12:03;;;;;;;4.20;3.50;;;23.10;36.90;;;;;;5011194;28;20041;-65
2022/11/27 10:14:58;;;;;;;3.88;3.22;;;23.10;36.90;;;;;;5010141;28;20503;-65
2022/11/27 10:17:56;;;;;;;4.78;3.38;;;23.10;36.80;;;;;;5011457;28;20045;-65
2022/11/27 10:20:35;;;;;;;4.32;3.53;;;23.10;36.80;;;;;;5009905;28;20562;-65
2022/11/27 10:23:13;;;;;;;3.22;2.90;;;23.10;36.80;;;;;;5010489;28;20046;-65
2022/11/27 10:25:47;;;;;;;3.88;3.25;;;23.10;36.80;;;;;;4993160;28;20046;-65
2022/11/27 10:28:46;;;;;;;3.72;2.80;;;23.10;36.80;;;;;;5010488;28;20072;-65
2022/11/27 10:31:19;;;;;;;4.03;3.00;;;23.10;36.70;;;;;;5006734;28;20056;-65
2022/11/27 10:33:53;;;;;;;5.07;3.50;;;23.10;36.70;;;;;;5009856;28;20064;-65
2022/11/27 10:36:29;;;;;;;5.60;3.00;;;23.10;36.70;;;;;;4993121;28;20529;-65
2022/11/27 10:38:58;;;;;;;4.15;3.13;;;23.20;36.80;;;;;;5009514;28;20491;-65
2022/11/27 10:41:36;;;;;;;4.20;3.00;;;23.20;36.80;;;;;;5010504;28;20515;-65
2022/11/27 10:44:30;;;;;;;3.20;2.80;;;23.20;36.80;;;;;;5009598;28;20077;-65
2022/11/27 10:47:02;;;;;;;4.28;3.28;;;23.20;36.70;;;;;;5010478;28;20054;-65
2022/11/27 10:49:30;;;;;;;4.35;3.25;;;23.20;36.70;;;;;;5010367;28;20061;-65
2022/11/27 10:51:58;;;;;;;4.90;3.10;;;23.20;36.70;;;;;;5009689;28;20503;-65
2022/11/27 10:54:37;;;;;;;4.30;3.35;;;23.30;36.70;;;;;;4993042;28;20050;-64
2022/11/27 10:57:23;;;;;;;;;;;23.30;36.70;;;;;;5010181;28;20048;-65
2022/11/27 11:00:24;;;;;;;3.38;2.67;;;23.30;36.70;;;;;;5010215;28;20383;-65
2022/11/27 11:03:03;;;;;;;4.72;3.33;;;23.30;36.70;;;;;;5009223;28;20052;-65
2022/11/27 11:05:31;;;;;;;3.07;2.77;;;23.30;36.70;;;;;;4987760;28;20056;-65
2022/11/27 11:08:19;;;;;;;2.92;2.65;;;23.30;36.60;;;;;;5008411;28;20291;-64
2022/11/27 11:11:05;;;;;;;3.95;2.90;;;23.40;36.60;;;;;;5009625;28;20065;-65
2022/11/27 11:13:45;;;;;;;4.43;3.03;;;23.40;36.50;;;;;;4992192;28;20069;-65
2022/11/27 11:16:17;;;;;;;3.28;2.40;;;23.40;36.50;;;;;;5009262;28;20499;-65
2022/11/27 11:18:54;;;;;;;3.40;3.10;;;23.50;36.50;;;;;;4993178;28;20053;-65
2022/11/27 11:21:31;;;;;;;2.97;2.78;;;23.50;36.40;;;;;;5009354;28;20049;-65
2022/11/27 11:24:02;;;;;;;3.88;2.47;;;23.50;36.40;;;;;;5009684;28;20415;-65
2022/11/27 11:26:37;;;;;;;3.25;2.85;;;23.50;36.30;;;;;;4992263;28;20049;-64
2022/11/27 11:29:19;;;;;;;3.85;2.40;;;23.60;36.30;;;;;;5008736;28;20259;-65
2022/11/27 11:31:46;;;;;;;3.42;2.28;;;23.60;36.20;;;;;;5009452;28;20046;-65
2022/11/27 11:34:22;;;;;;;2.55;2.28;;;23.60;36.20;;;;;;4991615;28;20451;-65
2022/11/27 11:37:06;;;;;;;4.40;2.53;;;23.60;36.10;;;;;;5009276;28;20037;-65
2022/11/27 11:39:42;;;;;;;3.15;2.85;;;23.70;36.20;;;;;;5009171;28;20515;-65
2022/11/27 11:42:18;;;;;;;3.25;2.75;;;23.70;36.20;;;;;;5009124;28;20053;-65
2022/11/27 11:44:50;;;;;;;3.08;2.75;;;23.70;36.10;;;;;;5004853;28;20443;-65
2022/11/27 11:47:24;;;;;;;2.95;2.28;;;23.70;36.10;;;;;;5008887;28;20562;-65
2022/11/27 11:49:52;;;;;;;3.83;2.40;;;23.70;36.00;;;;;;5008231;28;20052;-65
2022/11/27 11:52:45;;;;;;;3.97;2.97;;;23.70;36.10;;;;;;5008710;28;20214;-64
2022/11/27 11:55:36;;;;;;;3.63;2.78;;;23.70;36.10;;;;;;5009146;28;20058;-65
2022/11/27 11:58:35;;;;;;;2.35;2.10;;;23.70;36.00;;;;;;5008979;28;20042;-66
2022/11/27 12:01:38;;;;;;;2.45;2.25;;;23.70;36.00;;;;;;4995993;28;20417;-65
2022/11/27 12:04:29;;;;;;;3.58;2.45;;;23.70;36.00;;;;;;4993889;28;20506;-65
2022/11/27 12:07:24;;;;;;;2.88;2.60;;;23.70;35.90;;;;;;5009081;28;20164;-65
2022/11/27 12:10:28;;;;;;;2.72;2.47;;;23.70;35.90;;;;;;5008378;28;20046;-65
2022/11/27 12:13:25;;;;;;;2.97;2.55;;;23.80;36.00;;;;;;5008475;28;20049;-65
2022/11/27 12:16:24;;;;;;;2.63;2.35;;;23.70;35.90;;;;;;5008536;28;20081;-65
2022/11/27 12:19:31;;;;;;;2.88;2.60;;;23.80;35.90;;;;;;5008698;28;20080;-65
2022/11/27 12:22:25;;;;;;;3.25;2.92;;;23.80;35.90;;;;;;5003856;28;20470;-65
2022/11/27 12:25:18;;;;;;;2.33;2.13;;;23.80;35.90;;;;;;5008607;28;20046;-65
2022/11/27 12:28:21;;;;;;;2.75;2.55;;;23.80;35.90;;;;;;5008642;28;20133;-65
2022/11/27 12:31:20;;;;;;;5.40;2.72;;;23.80;35.90;;;;;;5008497;28;20518;-65
2022/11/27 12:34:27;;;;;;;2.50;2.30;;;23.80;35.80;;;;;;4993407;28;20050;-65
2022/11/27 12:37:33;;;;;;;3.03;2.65;;;23.80;35.80;;;;;;5008310;28;20045;-65
2022/11/27 12:40:22;;;;;;;2.53;2.33;;;23.80;35.80;;;;;;4996514;28;20049;-65
2022/11/27 12:43:04;;;;;;;3.10;2.30;;;23.80;35.80;;;;;;5008660;28;20050;-65
2022/11/27 12:46:01;;;;;;;3.00;2.45;;;23.80;35.80;;;;;;5007937;28;20049;-65
2022/11/27 12:48:57;;;;;;;3.30;2.53;;;23.80;35.80;;;;;;5008001;28;20400;-65
2022/11/27 12:51:38;;;;;;;3.65;2.95;;;23.80;35.80;;;;;;4978371;28;20052;-65
2022/11/27 12:54:13;;;;;;;3.90;3.15;;;23.80;35.80;;;;;;4985946;28;20484;-65
2022/11/27 12:56:44;;;;;;;3.05;2.55;;;23.80;35.80;;;;;;5008221;28;20053;-65
2022/11/27 12:59:32;;;;;;;3.15;2.67;;;23.80;35.80;;;;;;5007800;28;20052;-65
2022/11/27 13:02:38;;;;;;;4.10;2.90;;;23.70;35.90;;;;;;5012022;28;20049;-65
2022/11/27 13:05:15;;;;;;;2.67;2.47;;;23.70;35.90;;;;;;5000571;28;20053;-65
2022/11/27 13:08:05;;;;;;;3.13;2.85;;;23.80;36.00;;;;;;5012241;28;20467;-65
2022/11/27 13:10:39;;;;;;;3.55;3.13;;;23.70;36.00;;;;;;5012047;28;20143;-65
2022/11/27 13:13:15;;;;;;;3.22;2.63;;;23.70;36.00;;;;;;5011684;28;20488;-65
2022/11/27 13:15:51;;;;;;;3.58;3.22;;;23.70;36.00;;;;;;5011516;28;20056;-65
2022/11/27 13:18:34;;;;;;;3.22;2.95;;;23.70;36.00;;;;;;5012195;28;20411;-65